Time;durP1;ratioP1;P1;durP2;ratioP2;P2;SDS_P1;SDS_P2;PMS_P1;PMS_P2;Temp;Humidity;BMP_temperature;BMP_pressure;BME280_temperature;BME280_humidity;BME280_pressure;Samples;Min_cycle;Max_cycle;Signal;HPM_P1;HPM_P2
2021/05/03 00:00:50;;;;;;;20.95;13.75;;;;;;;11.03;60.35;101769.25;5053298;28;20059;-64
2021/05/03 00:03:17;;;;;;;19.42;14.05;;;;;;;11.13;59.89;101766.38;5054263;28;20480;-67
2021/05/03 00:05:47;;;;;;;16.83;13.45;;;;;;;10.79;60.29;101771.13;5053083;28;20052;-66
2021/05/03 00:08:14;;;;;;;18.55;12.50;;;;;;;11.19;58.97;101763.25;5052714;28;20480;-67
2021/05/03 00:10:42;;;;;;;14.65;11.75;;;;;;;11.11;58.73;101763.91;5051854;28;20045;-63
2021/05/03 00:13:09;;;;;;;16.17;11.88;;;;;;;10.91;58.77;101760.53;5052192;28;20048;-67
2021/05/03 00:15:37;;;;;;;18.63;13.05;;;;;;;10.61;59.12;101764.41;5052446;28;20056;-69
2021/05/03 00:18:05;;;;;;;13.77;11.25;;;;;;;10.36;59.83;101772.00;5018807;28;20056;-66
2021/05/03 00:20:32;;;;;;;16.50;12.45;;;;;;;10.27;60.51;101762.72;5053284;28;20053;-68
2021/05/03 00:27:31;;;;;;;13.48;11.07;;;;;;;10.15;61.46;101765.81;5012906;28;20038;-67
2021/05/03 00:29:58;;;;;;;14.48;11.80;;;;;;;10.28;61.02;101762.44;5012426;28;20161;-67
2021/05/03 00:32:25;;;;;;;14.90;11.90;;;;;;;10.11;62.40;101768.31;5012554;28;20052;-67
2021/05/03 00:34:52;;;;;;;15.50;12.15;;;;;;;10.15;61.28;101763.06;5009784;28;20494;-65
2021/05/03 00:41:43;;;;;;;15.75;13.45;;;;;;;9.99;62.03;101758.72;5012826;28;20045;-66
2021/05/03 00:44:10;;;;;;;18.15;13.18;;;;;;;10.22;61.57;101757.28;5012588;28;20049;-66
2021/05/03 00:46:40;;;;;;;16.15;12.50;;;;;;;10.40;60.70;101762.06;5010545;28;20046;-64
2021/05/03 00:49:07;;;;;;;18.10;13.98;;;;;;;10.31;61.46;101758.28;5012532;28;20041;-67
2021/05/03 00:51:35;;;;;;;15.07;11.80;;;;;;;10.42;61.01;101759.84;5012392;28;20429;-65
2021/05/03 00:54:02;;;;;;;17.55;13.38;;;;;;;10.01;62.51;101760.09;5012580;28;20049;-67
2021/05/03 00:56:29;;;;;;;18.23;13.45;;;;;;;10.10;62.57;101760.34;5012548;28;20088;-71
2021/05/03 00:58:56;;;;;;;15.93;12.88;;;;;;;10.06;62.85;101759.22;5010784;28;20050;-64
2021/05/03 01:01:23;;;;;;;16.10;12.68;;;;;;;9.95;63.79;101764.00;5010811;28;20038;-66
2021/05/03 01:03:50;;;;;;;16.48;13.60;;;;;;;9.97;63.96;101766.47;5010099;28;20046;-68
2021/05/03 01:06:18;;;;;;;16.90;13.48;;;;;;;10.03;63.54;101763.41;5011053;28;20203;-64
2021/05/03 01:13:12;;;;;;;16.90;13.48;;;;;;;10.27;63.30;101769.03;5012028;28;20417;-67
2021/05/03 01:15:39;;;;;;;15.48;13.00;;;;;;;10.48;62.50;101758.72;5010446;28;20050;-65
2021/05/03 01:18:06;;;;;;;16.70;13.75;;;;;;;10.45;62.57;101751.84;5010966;28;20497;-66
2021/05/03 01:20:36;;;;;;;17.70;13.50;;;;;;;10.40;62.97;101767.59;5012107;28;20405;-68
2021/05/03 01:27:29;;;;;;;18.63;14.43;;;;;;;10.22;64.12;101755.31;5050742;28;20060;-68
2021/05/03 01:29:56;;;;;;;19.95;15.70;;;;;;;9.97;65.41;101758.22;5051018;28;20049;-65
2021/05/03 01:32:23;;;;;;;19.60;16.13;;;;;;;10.18;64.89;101751.50;5050565;28;20056;-68
2021/05/03 01:34:50;;;;;;;22.13;15.10;;;;;;;10.50;63.51;101750.97;5032721;28;20049;-68
2021/05/03 01:41:44;;;;;;;19.02;15.38;;;;;;;10.55;62.94;101749.00;5055879;28;20041;-68
2021/05/03 01:44:13;;;;;;;19.25;15.40;;;;;;;10.46;63.32;101752.69;5039239;28;20049;-67
2021/05/03 01:46:40;;;;;;;20.30;15.73;;;;;;;10.09;64.65;101754.00;5022009;28;20364;-66
2021/05/03 01:49:09;;;;;;;18.83;15.38;;;;;;;10.29;64.31;101753.06;5055139;28;20130;-72
2021/05/03 01:51:37;;;;;;;20.60;15.75;;;;;;;10.20;64.37;101744.59;5055711;28;20400;-63
2021/05/03 01:58:42;;;;;;;19.65;15.48;;;;;;;10.06;64.84;101753.72;5055157;28;20545;-68
2021/05/03 02:01:09;;;;;;;21.05;16.42;;;;;;;10.03;64.57;101749.63;5036344;28;20055;-65
2021/05/03 02:03:36;;;;;;;19.60;16.02;;;;;;;10.21;64.37;101750.94;5054591;28;20500;-66
2021/05/03 02:06:04;;;;;;;23.73;16.08;;;;;;;10.11;63.98;101748.25;5054315;28;20480;-69
2021/05/03 02:08:31;;;;;;;19.92;15.73;;;;;;;10.07;64.23;101744.38;5054517;28;20361;-67
2021/05/03 02:10:59;;;;;;;19.73;14.63;;;;;;;9.93;64.17;101746.13;5055030;28;20540;-66
2021/05/03 02:13:26;;;;;;;21.45;15.90;;;;;;;9.81;64.30;101742.88;5054828;28;20392;-66
2021/05/03 02:15:53;;;;;;;19.52;15.90;;;;;;;9.56;65.24;101749.31;5054292;28;20418;-66
2021/05/03 02:18:20;;;;;;;19.77;16.60;;;;;;;9.93;64.22;101740.63;5054043;28;20052;-64
2021/05/03 02:20:48;;;;;;;20.23;15.45;;;;;;;9.97;63.51;101745.25;5037213;28;20064;-68
2021/05/03 02:23:15;;;;;;;20.70;15.50;;;;;;;10.11;62.97;101737.25;5036776;28;20056;-64
2021/05/03 02:25:42;;;;;;;18.42;14.85;;;;;;;10.32;62.03;101733.19;5053871;28;20060;-68
2021/05/03 02:28:10;;;;;;;18.20;15.57;;;;;;;10.14;62.67;101740.25;5036771;28;20053;-66
2021/05/03 02:30:39;;;;;;;20.50;15.90;;;;;;;10.22;63.62;101743.50;5054652;28;20053;-65
2021/05/03 02:33:07;;;;;;;19.30;15.88;;;;;;;10.28;62.19;101739.59;5053303;28;20049;-69
2021/05/03 02:35:34;;;;;;;19.08;15.48;;;;;;;10.26;62.03;101741.78;5053314;28;20436;-67
2021/05/03 02:38:06;;;;;;;18.75;15.23;;;;;;;10.13;63.56;101751.50;5053544;28;20049;-67
2021/05/03 02:40:35;;;;;;;18.05;15.30;;;;;;;10.02;63.29;101742.47;5054054;28;20052;-67
2021/05/03 02:43:04;;;;;;;23.27;15.27;;;;;;;10.17;62.46;101749.84;5036168;28;20380;-69
2021/05/03 02:45:31;;;;;;;19.10;15.95;;;;;;;10.02;62.42;101749.91;5055305;28;20060;-65
2021/05/03 02:47:59;;;;;;;20.70;16.17;;;;;;;10.07;62.36;101744.38;5037151;28;20064;-68
2021/05/03 02:50:26;;;;;;;21.52;15.98;;;;;;;9.93;62.24;101746.94;5053871;28;20048;-68
2021/05/03 02:52:53;;;;;;;24.75;16.35;;;;;;;10.10;61.67;101746.59;5019714;28;20502;-64
2021/05/03 02:55:22;;;;;;;19.85;15.98;;;;;;;9.79;62.77;101751.44;5054160;28;20477;-69
2021/05/03 02:57:49;;;;;;;19.17;15.90;;;;;;;9.80;62.57;101750.31;5052755;28;20053;-69
2021/05/03 03:00:36;;;;;;;20.00;15.20;;;;;;;9.85;62.27;101750.28;5053243;28;20052;-65
2021/05/03 03:03:04;;;;;;;19.80;16.10;;;;;;;9.67;62.38;101742.69;5053554;28;20053;-71
2021/05/03 03:05:31;;;;;;;22.65;15.85;;;;;;;9.82;62.02;101750.03;5054086;28;20053;-68
2021/05/03 03:08:01;;;;;;;19.08;15.00;;;;;;;9.63;63.04;101749.84;5053262;28;20049;-70
2021/05/03 03:14:56;;;;;;;21.33;16.02;;;;;;;9.77;62.38;101752.81;5054012;28;20045;-65
2021/05/03 03:17:23;;;;;;;21.55;15.80;;;;;;;9.97;61.62;101750.75;5035558;28;20346;-67
2021/05/03 03:19:50;;;;;;;20.50;16.17;;;;;;;9.78;61.90;101760.78;5035908;28;20057;-69
2021/05/03 03:22:17;;;;;;;19.10;15.98;;;;;;;9.26;62.35;101754.94;5035664;28;20040;-68
2021/05/03 03:24:44;;;;;;;19.98;16.88;;;;;;;9.23;62.99;101751.91;5053786;28;20048;-66
2021/05/03 03:27:11;;;;;;;18.67;15.63;;;;;;;9.09;62.98;101755.25;5052575;28;20056;-67
2021/05/03 03:29:39;;;;;;;18.92;15.13;;;;;;;9.04;63.69;101762.69;5035593;28;20057;-67
2021/05/03 03:32:06;;;;;;;17.77;15.52;;;;;;;9.13;63.12;101751.94;5053299;28;20059;-66
2021/05/03 03:34:33;;;;;;;17.83;15.57;;;;;;;9.03;63.74;101752.81;5052843;28;20496;-69
2021/05/03 03:37:13;;;;;;;18.80;15.23;;;;;;;9.12;63.79;101750.31;5053359;28;20479;-66
2021/05/03 03:39:41;;;;;;;18.58;15.32;;;;;;;9.36;64.06;101754.91;5053041;28;20408;-68
2021/05/03 03:42:08;;;;;;;18.90;15.43;;;;;;;9.71;66.44;101751.19;5053187;28;20056;-67
2021/05/03 03:44:36;;;;;;;19.85;15.25;;;;;;;9.61;64.27;101752.06;5053367;28;20051;-63
2021/05/03 03:47:03;;;;;;;18.77;15.73;;;;;;;10.06;64.32;101746.31;5035556;28;20049;-65
2021/05/03 03:49:31;;;;;;;17.45;14.93;;;;;;;9.69;62.07;101756.94;5053430;28;20052;-66
2021/05/03 03:51:58;;;;;;;19.52;14.98;;;;;;;9.52;62.45;101753.72;5053151;28;20396;-69
2021/05/03 03:54:25;;;;;;;21.55;15.30;;;;;;;9.72;61.90;101755.59;5052428;28;20508;-67
2021/05/03 03:56:52;;;;;;;19.40;16.00;;;;;;;9.76;61.82;101749.22;5052945;28;20053;-65
2021/05/03 03:59:19;;;;;;;21.83;16.25;;;;;;;9.59;62.60;101757.00;5053137;28;20058;-62
2021/05/03 04:01:47;;;;;;;20.38;15.02;;;;;;;9.62;62.06;101758.38;5051718;28;20487;-66
2021/05/03 04:04:23;;;;;;;20.10;16.58;;;;;;;9.70;61.97;101750.38;5036394;28;20471;-67
2021/05/03 04:25:15;;;;;;;19.63;16.55;;;;;;;9.55;62.46;101753.19;4955558;28;20054;-67
2021/05/03 04:27:42;;;;;;;22.08;15.98;;;;;;;9.84;61.62;101759.66;4971751;28;20462;-66
2021/05/03 04:30:10;;;;;;;21.42;16.00;;;;;;;9.73;61.88;101759.97;4971981;28;20054;-69
2021/05/03 04:32:38;;;;;;;21.00;16.25;;;;;;;9.52;62.69;101753.72;4954669;28;20567;-68
2021/05/03 04:35:06;;;;;;;20.40;16.75;;;;;;;9.69;62.49;101756.16;4956117;28;20062;-72
2021/05/03 04:37:33;;;;;;;21.52;17.13;;;;;;;9.48;63.29;101755.41;4972288;28;20046;-70
2021/05/03 04:40:00;;;;;;;20.63;16.65;;;;;;;9.12;64.25;101753.88;4955968;28;20398;-66
2021/05/03 04:42:28;;;;;;;20.63;16.50;;;;;;;9.21;64.11;101752.19;4971389;28;20047;-69
2021/05/03 04:44:55;;;;;;;21.85;17.23;;;;;;;9.41;63.75;101749.41;4970471;28;20054;-67
2021/05/03 04:47:22;;;;;;;20.27;16.58;;;;;;;9.76;62.52;101746.47;4971443;28;20066;-66
2021/05/03 04:49:50;;;;;;;21.38;17.50;;;;;;;9.61;62.79;101738.31;4970654;28;20055;-66
2021/05/03 04:52:17;;;;;;;21.35;16.75;;;;;;;9.58;62.98;101743.53;4970712;28;20062;-67
2021/05/03 04:54:44;;;;;;;21.25;16.85;;;;;;;9.52;62.83;101748.22;5037040;28;20075;-67
2021/05/03 04:57:13;;;;;;;22.02;17.20;;;;;;;9.66;62.79;101754.78;5034673;28;20049;-71
2021/05/03 04:59:41;;;;;;;23.38;16.85;;;;;;;9.37;63.49;101747.47;5051142;28;20059;-66
2021/05/03 05:02:09;;;;;;;21.52;17.20;;;;;;;9.40;63.93;101752.41;5050660;28;20049;-68
2021/05/03 05:04:37;;;;;;;22.52;17.77;;;;;;;9.53;63.46;101758.16;5051629;28;20048;-67
2021/05/03 05:07:04;;;;;;;22.48;17.52;;;;;;;9.54;63.12;101751.53;5034424;28;20041;-67
2021/05/03 05:09:31;;;;;;;20.95;16.50;;;;;;;9.32;63.89;101758.50;5051052;28;20057;-67
2021/05/03 05:16:37;;;;;;;23.25;17.15;;;;;;;9.55;63.10;101761.44;5051254;28;20045;-65
2021/05/03 05:19:04;;;;;;;22.17;17.13;;;;;;;9.66;63.05;101763.03;5050982;28;20053;-65
2021/05/03 05:21:32;;;;;;;23.17;16.98;;;;;;;10.04;62.79;101761.47;5033322;28;20056;-68
2021/05/03 05:23:59;;;;;;;20.55;17.25;;;;;;;9.79;62.14;101761.59;5050856;28;20071;-66
2021/05/03 05:26:26;;;;;;;22.15;17.10;;;;;;;9.87;62.40;101766.50;5031886;28;20049;-68
2021/05/03 05:28:53;;;;;;;20.70;17.38;;;;;;;9.92;61.85;101758.25;5033660;28;20044;-68
2021/05/03 05:31:21;;;;;;;22.33;16.70;;;;;;;9.97;61.87;101759.00;5033619;28;20049;-70
2021/05/03 05:33:48;;;;;;;25.73;18.02;;;;;;;9.98;61.49;101765.34;5016890;28;20076;-67
2021/05/03 05:36:15;;;;;;;21.67;17.90;;;;;;;9.67;62.18;101767.44;5033806;28;20045;-66
2021/05/03 05:38:44;;;;;;;20.67;18.02;;;;;;;9.92;61.72;101770.06;5051689;28;20045;-65
2021/05/03 05:41:13;;;;;;;21.95;17.35;;;;;;;9.91;61.86;101771.16;5033622;28;20411;-65
2021/05/03 05:43:41;;;;;;;21.38;17.35;;;;;;;10.10;61.84;101769.44;5050463;28;20064;-66
2021/05/03 05:46:08;;;;;;;23.20;19.20;;;;;;;10.03;61.39;101768.06;5051128;28;20060;-66
2021/05/03 05:48:36;;;;;;;21.10;17.30;;;;;;;9.92;61.37;101774.75;5051330;28;20041;-67
2021/05/03 05:51:03;;;;;;;24.60;17.90;;;;;;;9.70;62.01;101777.03;5033125;28;20376;-66
2021/05/03 05:53:31;;;;;;;22.88;17.40;;;;;;;10.00;61.84;101772.22;5051500;28;20056;-65
2021/05/03 05:55:59;;;;;;;23.45;18.15;;;;;;;10.05;61.94;101765.84;5051216;28;20056;-67
2021/05/03 05:58:31;;;;;;;23.63;17.63;;;;;;;10.09;60.89;101765.03;5033801;28;20052;-66
2021/05/03 06:01:00;;;;;;;24.95;18.63;;;;;;;10.40;60.69;101771.16;5034208;28;20053;-67
2021/05/03 06:03:27;;;;;;;25.25;17.58;;;;;;;10.26;60.81;101774.84;5032235;28;20056;-66
2021/05/03 06:05:56;;;;;;;22.63;17.52;;;;;;;10.38;60.41;101770.63;5032951;28;20055;-67
2021/05/03 06:08:24;;;;;;;32.03;26.43;;;;;;;10.36;60.49;101766.50;5051409;28;20344;-65
2021/05/03 06:10:53;;;;;;;23.37;19.03;;;;;;;10.66;60.38;101763.50;5050890;28;20056;-64
2021/05/03 06:13:21;;;;;;;22.02;16.30;;;;;;;10.57;59.34;101768.00;5033012;28;20071;-65
2021/05/03 06:15:49;;;;;;;22.13;17.08;;;;;;;10.85;58.81;101773.53;5033180;28;20037;-68
2021/05/03 06:18:16;;;;;;;21.67;17.83;;;;;;;10.77;58.95;101765.91;5051084;28;20048;-67
2021/05/03 06:20:43;;;;;;;21.98;16.67;;;;;;;10.81;61.08;101766.97;5050941;28;20053;-62
2021/05/03 06:23:13;;;;;;;22.60;16.27;;;;;;;10.69;58.88;101763.75;5050295;28;20052;-64
2021/05/03 06:25:40;;;;;;;20.65;16.35;;;;;;;10.58;59.74;101762.22;5055087;28;20041;-68
2021/05/03 06:32:44;;;;;;;19.77;16.20;;;;;;;11.23;61.61;101758.81;5016029;28;20054;-67
2021/05/03 06:35:11;;;;;;;17.85;15.52;;;;;;;10.96;57.41;101766.00;5016278;28;20065;-68
2021/05/03 06:37:38;;;;;;;18.45;14.75;;;;;;;11.10;57.67;101765.03;5013865;28;20057;-67
2021/05/03 06:40:06;;;;;;;20.75;15.32;;;;;;;11.43;63.09;101765.22;5013567;28;20064;-67
2021/05/03 06:47:15;;;;;;;19.88;14.95;;;;;;;11.40;59.18;101768.56;5015913;28;20042;-69
2021/05/03 06:49:43;;;;;;;20.25;14.93;;;;;;;11.23;58.56;101769.03;5015444;28;20046;-70
2021/05/03 06:52:10;;;;;;;18.40;14.60;;;;;;;10.87;56.51;101763.06;5016572;28;20157;-70
2021/05/03 06:54:38;;;;;;;20.05;14.73;;;;;;;10.71;58.56;101767.06;5016187;28;20494;-69
2021/05/03 06:57:06;;;;;;;16.20;13.82;;;;;;;10.68;57.79;101764.88;5013649;28;20049;-64
2021/05/03 06:59:33;;;;;;;19.50;14.80;;;;;;;11.03;56.36;101761.81;5015017;28;20377;-66
2021/05/03 07:02:00;;;;;;;28.80;21.10;;;;;;;11.24;56.03;101757.69;5014138;28;20046;-68
2021/05/03 07:04:27;;;;;;;19.33;14.48;;;;;;;11.34;59.20;101757.59;5014113;28;20053;-68
2021/05/03 07:06:54;;;;;;;19.23;14.40;;;;;;;11.27;56.52;101748.84;5013524;28;20050;-66
2021/05/03 07:09:21;;;;;;;20.73;15.13;;;;;;;11.17;56.62;101754.50;5012695;28;20046;-64
2021/05/03 07:11:50;;;;;;;20.23;14.63;;;;;;;11.38;55.46;101751.50;5013032;28;20060;-69
2021/05/03 07:14:18;;;;;;;19.70;14.13;;;;;;;11.60;56.17;101755.34;5014330;28;20057;-67
2021/05/03 07:16:46;;;;;;;19.42;15.10;;;;;;;11.16;54.89;101755.59;5013507;28;20042;-67
2021/05/03 07:19:13;;;;;;;20.27;14.75;;;;;;;11.31;58.23;101752.66;5011885;28;20382;-67
2021/05/03 07:21:40;;;;;;;20.00;15.40;;;;;;;11.32;55.42;101751.56;5014106;28;20057;-67
2021/05/03 07:24:10;;;;;;;18.73;14.85;;;;;;;11.55;54.77;101752.66;5012665;28;20042;-65
2021/05/03 07:26:37;;;;;;;19.70;14.80;;;;;;;11.56;54.91;101754.28;5013569;28;20050;-65
2021/05/03 07:33:32;;;;;;;22.65;13.00;;;;;;;12.58;60.04;101749.81;5052558;28;20056;-69
2021/05/03 07:36:00;;;;;;;17.08;11.55;;;;;;;12.55;55.27;101750.44;5033999;28;20049;-66
2021/05/03 07:38:27;;;;;;;12.98;10.45;;;;;;;12.86;55.58;101757.06;5053205;28;20056;-70
2021/05/03 07:40:54;;;;;;;13.38;10.55;;;;;;;12.98;54.39;101754.63;5053232;28;20064;-67
2021/05/03 07:48:01;;;;;;;14.30;10.32;;;;;;;13.30;53.85;101743.53;5053161;28;20037;-69
2021/05/03 07:50:28;;;;;;;12.68;9.95;;;;;;;13.39;56.34;101744.47;5018469;28;20049;-70
2021/05/03 07:52:57;;;;;;;15.45;11.02;;;;;;;13.31;50.63;101738.81;5052968;28;20052;-68
2021/05/03 07:55:25;;;;;;;14.60;10.68;;;;;;;13.56;54.78;101744.66;5052552;28;20049;-68
2021/05/03 07:57:52;;;;;;;16.95;11.52;;;;;;;13.37;48.32;101737.59;5034918;28;20052;-67
2021/05/03 08:00:20;;;;;;;18.58;11.40;;;;;;;13.77;54.53;101735.94;5051657;28;20053;-65
2021/05/03 08:02:48;;;;;;;13.13;8.98;;;;;;;14.26;55.32;101735.97;5052252;28;20041;-68
2021/05/03 08:05:15;;;;;;;17.40;10.85;;;;;;;14.21;50.77;101731.31;5052637;28;20056;-63
2021/05/03 08:07:42;;;;;;;16.98;10.02;;;;;;;14.44;53.24;101734.94;5052127;28;20053;-64
2021/05/03 08:10:11;;;;;;;16.23;12.23;;;;;;;14.37;49.08;101726.25;5052778;28;20060;-67
2021/05/03 08:12:38;;;;;;;16.63;11.90;;;;;;;14.13;54.05;101734.84;5052332;28;20049;-68
2021/05/03 08:15:13;;;;;;;15.27;11.77;;;;;;;14.09;46.10;101727.44;5051699;28;20532;-65
2021/05/03 08:17:43;;;;;;;14.82;11.13;;;;;;;14.38;48.74;101725.94;5051694;28;20049;-63
2021/05/03 08:20:15;;;;;;;15.77;11.40;;;;;;;14.68;49.37;101724.34;5052643;28;20060;-68
2021/05/03 08:22:42;;;;;;;16.73;9.40;;;;;;;14.94;52.64;101714.22;5000918;28;20045;-67
2021/05/03 08:25:09;;;;;;;15.52;9.73;;;;;;;15.20;49.92;101704.06;5052134;28;20044;-68
2021/05/03 08:27:37;;;;;;;18.38;9.77;;;;;;;14.99;51.28;101696.63;5051999;28;20037;-67
2021/05/03 08:34:40;;;;;;;12.18;8.20;;;;;;;14.48;43.59;101683.28;4951783;29;20062;-68
2021/05/03 08:37:07;;;;;;;13.48;8.00;;;;;;;14.38;45.37;101684.34;4951741;28;20051;-67
2021/05/03 08:39:34;;;;;;;9.93;7.78;;;;;;;14.61;45.75;101688.75;4951209;28;20067;-68
2021/05/03 08:42:03;;;;;;;11.93;7.97;;;;;;;14.78;48.83;101684.44;4951309;28;20069;-66
2021/05/03 08:49:20;;;;;;;12.13;7.20;;;;;;;15.29;47.38;101663.28;5004862;28;20046;-71
2021/05/03 08:51:57;;;;;;;13.15;8.20;;;;;;;15.42;48.13;101662.38;5012264;28;20301;-71
2021/05/03 08:54:58;;;;;;;13.20;6.47;;;;;;;15.56;44.32;101667.81;5011599;28;20074;-70
2021/05/03 08:57:18;;;;;;;15.25;7.55;;;;;;;15.61;45.78;101665.69;5010168;28;20172;-66
2021/05/03 09:04:14;;;;;;;10.30;7.80;;;;;;;15.65;45.10;101666.69;5010658;28;20050;-69
2021/05/03 09:06:59;;;;;;;10.52;7.50;;;;;;;15.67;42.80;101658.81;5009271;28;20069;-65
2021/05/03 09:09:36;;;;;;;11.60;6.93;;;;;;;15.91;44.37;101660.31;5011066;28;20066;-67
2021/05/03 09:12:25;;;;;;;12.07;7.47;;;;;;;16.11;42.71;101656.91;5010682;28;20061;-67
2021/05/03 09:19:03;;;;;;;10.45;6.68;;;;;;;16.19;41.32;101658.84;5012224;28;20398;-65
2021/05/03 09:21:32;;;;;;;12.70;6.85;;;;;;;16.08;42.22;101651.97;5011613;28;20421;-69
2021/05/03 09:24:33;;;;;;;13.68;7.40;;;;;;;15.82;39.48;101645.59;5010973;28;20046;-65
2021/05/03 09:27:07;;;;;;;14.45;7.75;;;;;;;15.92;39.09;101646.09;5009827;28;20046;-67
2021/05/03 09:33:56;;;;;;;12.15;6.40;;;;;;;15.99;40.05;101626.97;5040558;28;20046;-66
2021/05/03 09:36:25;;;;;;;10.07;6.38;;;;;;;16.32;39.87;101630.06;5050589;28;20045;-67
2021/05/03 09:38:52;;;;;;;11.88;6.25;;;;;;;16.00;40.73;101622.25;5050698;28;20049;-67
2021/05/03 09:41:26;;;;;;;14.90;6.00;;;;;;;16.42;40.04;101624.94;5033559;28;20412;-67
2021/05/03 09:48:20;;;;;;;9.90;6.13;;;;;;;16.23;35.93;101607.03;5050988;28;20378;-68
2021/05/03 09:50:47;;;;;;;9.63;5.47;;;;;;;16.08;36.20;101608.34;5033239;28;20369;-65
2021/05/03 09:53:14;;;;;;;12.80;7.15;;;;;;;16.15;37.86;101607.84;5050557;28;20056;-67
2021/05/03 09:55:53;;;;;;;10.20;7.35;;;;;;;16.44;37.40;101591.28;5033077;28;20114;-64
2021/05/03 09:58:25;;;;;;;9.48;4.82;;;;;;;16.57;40.14;101593.06;5032862;28;20056;-62
2021/05/03 10:05:19;;;;;;;9.38;5.82;;;;;;;15.28;36.45;101588.66;5053980;28;20458;-66
2021/05/03 10:07:54;;;;;;;10.68;6.00;;;;;;;15.72;38.25;101589.25;5037003;28;20404;-65
2021/05/03 10:10:35;;;;;;;12.77;7.22;;;;;;;16.04;41.20;101579.56;5036153;28;20049;-66
2021/05/03 10:13:02;;;;;;;8.70;6.00;;;;;;;15.78;37.48;101579.59;5053955;28;20144;-68
2021/05/03 10:15:29;;;;;;;11.15;7.50;;;;;;;15.96;39.93;101572.06;5053343;28;20049;-66
2021/05/03 10:17:57;;;;;;;8.05;5.10;;;;;;;16.12;39.67;101572.38;5054121;28;20518;-68
2021/05/03 10:20:26;;;;;;;8.57;5.22;;;;;;;15.99;38.67;101568.63;5053204;28;20586;-66
2021/05/03 10:22:56;;;;;;;12.88;6.03;;;;;;;16.18;37.01;101562.72;5036332;28;20051;-71
2021/05/03 10:25:23;;;;;;;;;;;;;;;16.08;38.37;101560.25;5020753;28;20064;-69
2021/05/03 10:27:51;;;;;;;7.72;4.65;;;;;;;16.34;41.56;101559.06;5036677;28;19920;-68
2021/05/03 10:30:23;;;;;;;8.05;5.10;;;;;;;16.31;36.40;101545.84;5036912;28;20048;-67
2021/05/03 10:33:00;;;;;;;11.82;4.72;;;;;;;16.41;39.79;101534.34;5018851;28;20045;-68
2021/05/03 10:35:37;;;;;;;14.80;5.32;;;;;;;16.28;38.15;101534.56;5053196;28;20052;-69
2021/05/03 10:38:07;;;;;;;8.40;5.00;;;;;;;15.93;35.76;101530.22;5054398;28;20049;-68
2021/05/03 10:40:34;;;;;;;6.90;4.75;;;;;;;16.09;38.44;101523.00;5054469;28;20048;-65
2021/05/03 10:43:01;;;;;;;8.13;4.88;;;;;;;16.50;36.34;101526.81;5036146;28;20049;-67
2021/05/03 10:46:05;;;;;;;8.85;5.50;;;;;;;16.64;37.88;101515.47;5036196;28;20511;-66
2021/05/03 10:49:01;;;;;;;10.02;5.32;;;;;;;17.07;39.88;101502.13;5053915;28;20044;-66
2021/05/03 10:54:25;;;;;;;9.02;5.00;;;;;;;17.04;36.42;101501.97;5053876;28;20048;-67
2021/05/03 10:56:59;;;;;;;10.27;4.90;;;;;;;16.99;37.63;101489.09;5054621;28;20049;-66
2021/05/03 10:59:44;;;;;;;9.77;4.00;;;;;;;17.16;39.12;101493.69;5020658;28;20052;-66
2021/05/03 11:02:47;;;;;;;8.35;4.68;;;;;;;17.12;35.29;101489.97;4992370;28;20070;-68
2021/05/03 11:05:28;;;;;;;8.52;4.32;;;;;;;16.76;39.58;101482.19;4975375;28;20054;-67
2021/05/03 11:08:04;;;;;;;8.80;4.88;;;;;;;16.89;33.81;101475.56;4992252;28;20055;-64
2021/05/03 11:11:06;;;;;;;8.48;4.32;;;;;;;17.19;33.43;101479.13;4990940;28;20058;-68
2021/05/03 11:13:49;;;;;;;7.35;4.47;;;;;;;17.28;38.80;101480.66;4992140;28;20069;-67
2021/05/03 11:22:39;;;;;;;7.75;4.45;;;;;;;17.38;37.23;101460.75;5051965;28;20048;-66
2021/05/03 11:25:12;;;;;;;7.53;4.53;;;;;;;17.56;32.29;101455.88;5052917;28;20041;-65
2021/05/03 11:35:13;;;;;;;8.60;4.47;;;;;;;18.06;34.26;101433.38;5013071;28;20053;-67
2021/05/03 11:38:13;;;;;;;9.88;4.85;;;;;;;17.70;35.34;101434.09;4995734;28;20046;-66
2021/05/03 11:41:00;;;;;;;6.45;3.90;;;;;;;18.14;36.79;101424.91;5012718;28;20369;-67
2021/05/03 11:50:24;;;;;;;11.23;3.90;;;;;;;17.78;33.96;101405.34;5011642;28;20049;-69
2021/05/03 11:52:52;;;;;;;10.10;3.60;;;;;;;18.02;34.93;101410.13;5012784;28;20069;-68
2021/05/03 11:55:22;;;;;;;7.15;3.70;;;;;;;18.15;33.79;101398.63;5012906;28;20057;-67
2021/05/03 11:57:49;;;;;;;9.57;3.80;;;;;;;18.27;33.42;101383.91;5013273;28;20393;-68
2021/05/03 12:00:21;;;;;;;8.90;4.07;;;;;;;18.44;32.94;101387.31;5011702;28;20057;-67
2021/05/03 12:03:00;;;;;;;12.05;4.30;;;;;;;18.22;31.22;101384.16;5012443;28;20046;-70
2021/05/03 12:05:30;;;;;;;6.90;4.00;;;;;;;18.30;32.45;101384.03;5013202;28;20037;-68
2021/05/03 12:07:57;;;;;;;6.93;4.18;;;;;;;18.44;31.36;101370.56;5011917;28;20046;-67
2021/05/03 12:10:24;;;;;;;7.47;3.90;;;;;;;18.30;30.35;101364.50;5012520;28;20053;-69
2021/05/03 12:12:56;;;;;;;6.45;4.00;;;;;;;18.14;30.83;101368.31;5013527;28;20049;-71
2021/05/03 12:15:29;;;;;;;7.75;4.25;;;;;;;18.15;33.59;101359.59;5012697;28;20058;-69
2021/05/03 12:18:00;;;;;;;9.10;4.68;;;;;;;18.08;33.01;101364.16;5012996;28;20050;-70
2021/05/03 12:20:29;;;;;;;7.25;3.90;;;;;;;18.11;34.17;101360.66;5013351;28;20053;-66
2021/05/03 12:23:05;;;;;;;5.90;3.67;;;;;;;18.13;34.95;101344.41;4994167;28;20512;-67
2021/05/03 12:25:50;;;;;;;6.88;3.47;;;;;;;18.26;37.21;101343.22;5011979;28;20050;-70
2021/05/03 12:28:19;;;;;;;8.30;4.78;;;;;;;17.82;30.50;101336.59;5012200;28;20064;-69
2021/05/03 12:30:48;;;;;;;6.90;3.55;;;;;;;18.00;35.56;101338.00;5012512;28;20061;-70
2021/05/03 12:33:36;;;;;;;11.20;4.32;;;;;;;17.94;30.60;101328.22;5029533;28;20485;-67
2021/05/03 12:36:08;;;;;;;6.82;4.32;;;;;;;17.19;32.33;101328.78;5034401;28;20041;-70
2021/05/03 12:38:35;;;;;;;7.22;3.50;;;;;;;17.86;36.30;101320.81;5051595;28;20061;-69
2021/05/03 12:41:07;;;;;;;9.40;4.10;;;;;;;18.17;33.74;101320.22;5034114;28;20060;-71
2021/05/03 12:43:38;;;;;;;12.48;3.90;;;;;;;18.16;34.33;101316.63;5035028;28;20053;-71
2021/05/03 12:50:48;;;;;;;11.00;4.00;;;;;;;17.74;31.83;101304.91;5051630;28;20049;-68
2021/05/03 12:53:24;;;;;;;6.97;3.60;;;;;;;17.41;33.93;101303.31;5035907;28;20048;-68
2021/05/03 12:58:49;;;;;;;9.00;3.80;;;;;;;17.22;32.17;101294.69;5034110;28;20048;-71
2021/05/03 13:05:47;;;;;;;9.68;4.15;;;;;;;17.38;37.38;101288.09;5052071;28;20064;-68
2021/05/03 13:30:15;;;;;;;8.73;3.00;;;;;;;17.94;28.50;101259.38;4950489;29;20047;-71
2021/05/03 13:37:13;;;;;;;11.68;3.00;;;;;;;18.03;35.51;101266.81;4951094;29;20055;-70
2021/05/03 13:40:01;;;;;;;7.50;2.97;;;;;;;18.41;32.72;101258.88;4934870;29;20527;-70
2021/05/03 13:42:29;;;;;;;7.82;2.70;;;;;;;18.39;30.53;101255.59;4934729;29;20585;-66
2021/05/03 13:44:57;;;;;;;6.68;3.08;;;;;;;18.44;30.27;101260.94;4935861;29;20495;-70
2021/05/03 13:52:02;;;;;;;7.32;2.97;;;;;;;18.41;30.16;101242.13;4951289;29;20456;-69
2021/05/03 13:54:29;;;;;;;7.57;2.78;;;;;;;18.39;30.88;101247.22;4989415;28;20477;-69
2021/05/03 13:56:58;;;;;;;6.60;3.05;;;;;;;18.31;32.05;101245.38;5031155;28;20358;-72
2021/05/03 13:59:25;;;;;;;4.68;2.78;;;;;;;18.45;30.85;101237.44;5029823;28;20060;-72
2021/05/03 14:01:52;;;;;;;5.60;3.13;;;;;;;18.49;31.71;101235.59;5030472;28;20476;-70
2021/05/03 14:08:55;;;;;;;4.47;2.90;;;;;;;18.42;33.15;101218.66;5030967;28;20080;-64
2021/05/03 14:11:23;;;;;;;5.60;2.97;;;;;;;18.47;30.81;101210.84;5013360;28;20057;-67
2021/05/03 14:13:50;;;;;;;6.95;4.53;;;;;;;18.68;30.65;101211.44;5031342;28;20385;-66
2021/05/03 14:16:17;;;;;;;5.28;3.00;;;;;;;19.02;32.06;101204.41;5029963;28;20349;-67
2021/05/03 14:18:44;;;;;;;7.43;2.97;;;;;;;19.05;33.74;101198.09;5029621;28;20401;-69
2021/05/03 14:21:15;;;;;;;6.13;2.95;;;;;;;18.40;28.80;101193.03;5029319;28;20064;-69
2021/05/03 14:23:42;;;;;;;9.45;3.03;;;;;;;18.28;36.14;101193.91;5013794;28;20053;-69